createdAt,value
2022-08-11T06:07:19.424Z,10
2022-08-11T06:15:07.962Z,9
2022-08-11T06:22:48.551Z,15
2022-08-11T06:30:56.968Z,8
2022-08-11T06:39:03.490Z,12
2022-08-11T06:46:36.129Z,12
2022-08-11T06:54:37.106Z,8
2022-08-11T07:03:30.259Z,13
2022-08-11T07:10:47.164Z,10
2022-08-11T07:18:29.496Z,17
2022-08-11T07:27:04.657Z,10
2022-08-11T07:35:13.484Z,13
2022-08-11T07:42:41.430Z,10
2022-08-11T07:50:01.481Z,11
2022-08-11T08:00:00.809Z,13
2022-08-11T08:08:09.796Z,9
2022-08-11T08:15:48.486Z,8
2022-08-11T08:24:20.395Z,11
2022-08-11T08:31:32.575Z,8
2022-08-11T08:39:20.192Z,5
2022-08-11T08:46:57.812Z,5
2022-08-11T08:55:02.358Z,6
2022-08-11T09:02:34.402Z,7
2022-08-11T09:11:13.718Z,4
2022-08-11T09:19:18.697Z,2
2022-08-11T09:27:40.553Z,2
2022-08-11T09:35:22.922Z,4
2022-08-11T09:43:36.427Z,4
2022-08-11T09:50:59.039Z,6
2022-08-11T09:59:17.748Z,6
2022-08-11T10:06:53.349Z,2
2022-08-11T10:15:39.877Z,2
2022-08-11T10:24:00.163Z,3
2022-08-11T10:33:07.351Z,2
2022-08-11T10:41:37.105Z,3
2022-08-11T10:50:13.087Z,4
2022-08-11T10:58:04.435Z,2
2022-08-11T11:06:13.118Z,2
2022-08-11T11:14:06.250Z,3
2022-08-11T11:21:45.342Z,3
2022-08-11T11:29:16.378Z,3
2022-08-11T11:36:50.073Z,3
2022-08-11T11:44:21.974Z,6
2022-08-11T11:51:43.470Z,4
2022-08-11T11:59:08.416Z,4
2022-08-11T12:06:43.678Z,7
2022-08-11T12:14:27.886Z,4
2022-08-11T12:22:59.081Z,4
2022-08-11T12:31:22.236Z,4
2022-08-11T12:39:02.639Z,4
2022-08-11T12:47:40.934Z,6
2022-08-11T12:56:11.975Z,5
2022-08-11T13:03:52.565Z,4
2022-08-11T13:11:54.788Z,6
2022-08-11T13:20:13.217Z,4
2022-08-11T13:28:19.096Z,5
2022-08-11T13:35:44.085Z,4
2022-08-11T13:44:20.411Z,4
2022-08-11T13:51:38.450Z,5
2022-08-11T14:00:41.601Z,6
2022-08-11T14:10:42.210Z,8
2022-08-11T14:19:46.090Z,6
2022-08-11T14:29:08.330Z,4
2022-08-11T14:37:21.617Z,5
2022-08-11T14:45:54.566Z,7
2022-08-11T14:54:11.579Z,8
2022-08-11T15:01:50.453Z,7
2022-08-11T15:10:12.044Z,6
2022-08-11T15:17:43.145Z,8
2022-08-11T15:25:04.438Z,8
2022-08-11T15:32:27.714Z,6
2022-08-11T15:40:31.871Z,7
2022-08-11T15:48:38.889Z,8
2022-08-11T15:56:47.879Z,8
2022-08-11T16:05:25.067Z,10
2022-08-11T16:13:27.481Z,7
2022-08-11T16:20:52.161Z,7
2022-08-11T16:31:35.684Z,8
2022-08-11T16:39:45.243Z,4
2022-08-11T16:49:12.020Z,7
2022-08-11T16:57:51.804Z,6
2022-08-11T17:05:27.175Z,8
2022-08-11T17:14:10.933Z,8
2022-08-11T17:22:38.226Z,9
2022-08-11T17:30:01.598Z,8
2022-08-11T17:37:57.346Z,10
2022-08-11T17:45:31.272Z,7
2022-08-11T17:52:54.829Z,8
2022-08-11T18:01:09.013Z,6
2022-08-11T18:09:07.580Z,8
2022-08-11T18:17:26.906Z,5
2022-08-11T18:24:53.459Z,7
2022-08-11T18:32:49.889Z,7
2022-08-11T18:40:46.817Z,13
2022-08-11T18:48:33.252Z,10
2022-08-11T18:56:44.441Z,10
2022-08-11T19:04:23.930Z,13
2022-08-11T19:12:58.278Z,9
2022-08-11T19:20:24.151Z,10
2022-08-11T19:27:43.416Z,8
2022-08-11T19:36:26.531Z,7
2022-08-11T19:44:36.309Z,9
2022-08-11T19:52:28.379Z,6
2022-08-11T20:00:07.802Z,9
2022-08-11T20:08:00.309Z,20
2022-08-11T20:15:55.223Z,6
2022-08-11T20:23:50.751Z,10
2022-08-11T20:31:50.112Z,9
2022-08-11T20:39:23.001Z,6
2022-08-11T20:48:33.958Z,9
2022-08-11T20:56:29.176Z,7
2022-08-11T21:18:40.152Z,7
2022-08-11T21:26:33.306Z,8
2022-08-11T21:34:08.060Z,8
2022-08-11T21:41:36.052Z,5
2022-08-11T21:49:41.298Z,4
2022-08-11T21:57:00.677Z,7
2022-08-11T22:04:58.666Z,3
2022-08-11T22:14:01.179Z,6
2022-08-11T22:21:56.503Z,5
2022-08-11T22:30:19.163Z,4
2022-08-11T22:38:16.313Z,5
2022-08-11T22:45:54.384Z,3
2022-08-11T22:53:57.195Z,5
2022-08-11T23:01:26.364Z,4
2022-08-11T23:09:32.706Z,4
2022-08-11T23:17:17.705Z,6
2022-08-11T23:25:53.966Z,3
2022-08-11T23:33:48.490Z,3
2022-08-11T23:42:25.239Z,3
2022-08-11T23:50:03.070Z,4
2022-08-11T23:57:33.076Z,5
